createdAt,value
2018-02-15T00:00:39.596Z,23.30
2018-02-15T00:03:08.866Z,24.50
2018-02-15T00:05:38.282Z,27.10
2018-02-15T00:08:08.332Z,17.93
2018-02-15T00:10:37.606Z,20.50
2018-02-15T00:13:06.983Z,22.07
2018-02-15T00:15:36.250Z,25.10
2018-02-15T00:18:05.560Z,21.37
2018-02-15T00:20:34.974Z,20.00
2018-02-15T00:23:04.238Z,19.40
2018-02-15T00:25:33.500Z,27.40
2018-02-15T00:28:02.777Z,20.27
2018-02-15T00:30:32.690Z,26.87
2018-02-15T00:33:02.078Z,23.80
2018-02-15T00:35:31.321Z,19.17
2018-02-15T00:38:00.589Z,22.53
2018-02-15T00:40:29.861Z,27.07
2018-02-15T00:42:59.176Z,22.83
2018-02-15T00:45:28.633Z,18.47
2018-02-15T00:47:57.948Z,23.37
2018-02-15T00:50:27.224Z,33.90
2018-02-15T00:52:56.530Z,24.87
2018-02-15T00:55:25.763Z,29.37
2018-02-15T00:57:55.109Z,26.83
2018-02-15T01:00:24.405Z,29.50
2018-02-15T01:02:53.672Z,18.83
2018-02-15T01:05:23.285Z,22.33
2018-02-15T01:07:52.563Z,22.20
2018-02-15T01:10:21.830Z,22.87
2018-02-15T01:12:51.113Z,19.17
2018-02-15T01:15:20.572Z,21.60
2018-02-15T01:17:50.592Z,23.97
2018-02-15T01:20:19.862Z,31.00
2018-02-15T01:22:49.280Z,28.03
2018-02-15T01:25:18.518Z,28.47
2018-02-15T01:27:47.832Z,24.23
2018-02-15T01:30:17.065Z,21.77
2018-02-15T01:32:46.341Z,26.67
2018-02-15T01:35:15.617Z,26.80
2018-02-15T01:37:44.861Z,23.07
2018-02-15T01:40:14.369Z,28.83
2018-02-15T01:42:43.642Z,26.50
2018-02-15T01:45:13.005Z,23.80
2018-02-15T01:47:43.031Z,23.00
2018-02-15T01:50:12.490Z,27.97
2018-02-15T01:52:41.853Z,26.50
2018-02-15T01:55:11.100Z,18.10
2018-02-15T01:57:40.606Z,30.73
2018-02-15T02:00:10.800Z,30.30
2018-02-15T02:02:40.064Z,26.83
2018-02-15T02:05:09.352Z,27.50
2018-02-15T02:07:39.370Z,25.83
2018-02-15T02:10:08.624Z,25.13
2018-02-15T02:12:37.873Z,27.83
2018-02-15T02:15:07.113Z,24.43
2018-02-15T02:17:37.033Z,29.07
2018-02-15T02:20:06.382Z,25.03
2018-02-15T02:22:35.648Z,32.97
2018-02-15T02:25:04.899Z,20.60
2018-02-15T02:27:34.153Z,25.83
2018-02-15T02:30:03.476Z,26.70
2018-02-15T02:32:32.689Z,30.57
2018-02-15T02:35:01.969Z,31.70
2018-02-15T02:37:31.438Z,30.20
2018-02-15T02:40:00.723Z,25.00
2018-02-15T02:42:30.361Z,32.57
2018-02-15T02:44:59.642Z,29.70
2018-02-15T02:47:28.896Z,34.60
2018-02-15T02:49:58.169Z,28.37
2018-02-15T02:52:27.425Z,26.53
2018-02-15T02:54:57.545Z,24.30
2018-02-15T02:57:27.561Z,31.17
2018-02-15T02:59:56.807Z,34.20
2018-02-15T03:02:26.077Z,29.23
2018-02-15T03:04:55.316Z,31.80
2018-02-15T03:07:24.593Z,31.17
2018-02-15T03:09:53.991Z,40.60
2018-02-15T03:12:23.252Z,32.20
2018-02-15T03:14:52.513Z,37.73
2018-02-15T03:17:21.757Z,31.40
2018-02-15T03:19:51.010Z,28.20
2018-02-15T03:22:20.265Z,35.43
2018-02-15T03:24:50.528Z,29.07
2018-02-15T03:27:19.882Z,31.27
2018-02-15T03:29:49.285Z,45.03
2018-02-15T03:32:18.537Z,35.50
2018-02-15T03:34:48.010Z,32.17
2018-02-15T03:37:18.026Z,35.23
2018-02-15T03:39:47.309Z,35.03
2018-02-15T03:42:16.545Z,30.33
2018-02-15T03:44:45.849Z,29.93
2018-02-15T03:47:15.120Z,36.30
2018-02-15T03:49:44.373Z,39.17
2018-02-15T03:52:13.618Z,35.30
2018-02-15T03:54:42.885Z,30.47
2018-02-15T03:57:12.156Z,34.20
2018-02-15T03:59:41.406Z,31.30
2018-02-15T04:02:10.658Z,29.53
2018-02-15T04:04:39.947Z,33.90
2018-02-15T04:07:09.224Z,33.50
2018-02-15T04:09:38.478Z,41.10
2018-02-15T04:12:07.737Z,32.90
2018-02-15T04:14:37.754Z,35.90
2018-02-15T04:17:07.026Z,38.80
2018-02-15T04:19:37.776Z,39.13
2018-02-15T04:22:07.037Z,39.43
2018-02-15T04:24:36.292Z,33.23
2018-02-15T04:27:06.354Z,41.77
2018-02-15T04:29:35.605Z,30.77
2018-02-15T04:32:05.085Z,35.43
2018-02-15T04:34:35.865Z,31.67
2018-02-15T04:37:05.133Z,28.97
2018-02-15T04:39:34.547Z,37.33
2018-02-15T04:42:04.622Z,33.57
2018-02-15T04:44:33.836Z,35.60
2018-02-15T04:47:03.105Z,32.23
2018-02-15T04:49:32.354Z,28.60
2018-02-15T04:52:01.602Z,30.30
2018-02-15T04:54:30.849Z,29.20
2018-02-15T04:57:00.869Z,30.37
2018-02-15T04:59:30.120Z,37.50
2018-02-15T05:02:00.201Z,30.07
2018-02-15T05:04:29.462Z,32.33
2018-02-15T05:06:58.710Z,33.47
2018-02-15T05:09:28.757Z,36.03
2018-02-15T05:11:58.222Z,30.17
2018-02-15T05:14:27.493Z,29.77
2018-02-15T05:16:56.786Z,34.27
2018-02-15T05:19:26.033Z,33.83
2018-02-15T05:21:55.269Z,30.03
2018-02-15T05:24:24.589Z,34.37
2018-02-15T05:26:53.838Z,27.33
2018-02-15T05:29:23.119Z,28.77
2018-02-15T05:31:52.365Z,35.23
2018-02-15T05:34:21.623Z,30.00
2018-02-15T05:36:50.861Z,33.43
2018-02-15T05:39:20.117Z,27.57
2018-02-15T05:41:50.877Z,29.10
2018-02-15T05:44:20.152Z,36.37
2018-02-15T05:46:49.400Z,26.90
2018-02-15T05:49:18.653Z,28.13
2018-02-15T05:51:47.929Z,32.90
2018-02-15T05:54:17.193Z,39.37
2018-02-15T05:56:47.208Z,27.10
2018-02-15T05:59:16.467Z,24.20
2018-02-15T06:01:45.721Z,34.10
2018-02-15T06:04:15.747Z,32.83
2018-02-15T06:06:45.044Z,30.87
2018-02-15T06:09:14.287Z,32.30
2018-02-15T06:11:43.616Z,26.13
2018-02-15T06:14:14.406Z,31.70
2018-02-15T06:16:43.703Z,27.77
2018-02-15T06:19:12.953Z,30.80
2018-02-15T06:21:42.223Z,38.10
2018-02-15T06:24:11.477Z,31.30
2018-02-15T06:26:41.494Z,33.80
2018-02-15T06:29:10.759Z,26.20
2018-02-15T06:31:40.010Z,30.43
2018-02-15T06:34:10.031Z,28.43
2018-02-15T06:36:39.282Z,25.40
2018-02-15T06:39:08.554Z,46.30
2018-02-15T06:41:37.834Z,30.47
2018-02-15T06:44:07.076Z,33.00
2018-02-15T06:46:37.019Z,31.03
2018-02-15T06:49:07.048Z,32.80
2018-02-15T06:51:36.336Z,29.70
2018-02-15T06:54:05.668Z,34.23
2018-02-15T06:56:34.972Z,47.10
2018-02-15T06:59:04.240Z,32.53
2018-02-15T07:01:33.506Z,32.03
2018-02-15T07:04:03.147Z,34.57
2018-02-15T07:06:32.471Z,35.07
2018-02-15T07:09:02.518Z,30.27
2018-02-15T07:11:31.781Z,38.17
2018-02-15T07:14:01.070Z,44.43
2018-02-15T07:16:30.328Z,32.17
2018-02-15T07:18:59.593Z,32.00
2018-02-15T07:21:29.630Z,33.10
2018-02-15T07:23:58.893Z,35.13
2018-02-15T07:26:28.909Z,33.30
2018-02-15T07:28:58.186Z,29.27
2018-02-15T07:31:27.608Z,33.10
2018-02-15T07:33:58.357Z,29.57
2018-02-15T07:36:27.671Z,30.00
2018-02-15T07:38:56.886Z,30.47
2018-02-15T07:41:26.170Z,30.63
2018-02-15T07:43:56.186Z,25.60
2018-02-15T07:46:26.246Z,28.77
2018-02-15T07:48:55.603Z,27.97
2018-02-15T07:51:24.886Z,21.53
2018-02-15T07:53:54.127Z,23.37
2018-02-15T07:56:24.158Z,29.03
2018-02-15T07:58:53.496Z,33.57
2018-02-15T08:01:22.749Z,29.10
2018-02-15T08:03:52.005Z,34.77
2018-02-15T08:06:21.252Z,30.03
2018-02-15T08:08:50.517Z,38.50
2018-02-15T08:11:19.773Z,30.87
2018-02-15T08:13:49.125Z,29.87
2018-02-15T08:16:18.371Z,34.33
2018-02-15T08:18:47.759Z,30.93
2018-02-15T08:21:17.019Z,33.90
2018-02-15T08:23:46.277Z,36.53
2018-02-15T08:26:15.575Z,27.53
2018-02-15T08:28:44.823Z,36.00
2018-02-15T08:31:14.104Z,34.30
2018-02-15T08:33:43.473Z,31.90
2018-02-15T08:36:12.780Z,39.63
2018-02-15T08:38:42.147Z,27.27
2018-02-15T08:41:12.183Z,31.80
2018-02-15T08:43:41.450Z,44.97
2018-02-15T08:46:10.778Z,33.43
2018-02-15T08:48:39.991Z,32.37
2018-02-15T08:51:10.038Z,29.17
2018-02-15T08:53:39.469Z,30.57
2018-02-15T08:56:08.742Z,34.83
2018-02-15T08:58:38.009Z,29.63
2018-02-15T09:01:07.271Z,28.43
2018-02-15T09:03:36.557Z,30.90
2018-02-15T09:06:05.833Z,28.50
2018-02-15T09:08:35.985Z,29.00
2018-02-15T09:11:06.014Z,27.97
2018-02-15T09:13:35.261Z,25.33
2018-02-15T09:16:04.509Z,27.57
2018-02-15T09:18:33.773Z,24.87
2018-02-15T09:21:03.522Z,22.07
2018-02-15T09:23:32.777Z,24.07
2018-02-15T09:26:02.029Z,25.37
2018-02-15T09:28:31.300Z,30.77
2018-02-15T09:31:01.443Z,31.33
2018-02-15T09:33:31.464Z,27.70
2018-02-15T09:36:00.747Z,23.37
2018-02-15T09:38:30.091Z,24.77
2018-02-15T09:40:59.392Z,22.20
2018-02-15T09:43:28.661Z,20.50
2018-02-15T09:45:57.908Z,23.23
2018-02-15T09:48:27.153Z,25.97
2018-02-15T09:50:57.193Z,21.77
2018-02-15T09:53:26.504Z,23.70
2018-02-15T09:55:55.745Z,24.97
2018-02-15T09:58:25.193Z,25.93
2018-02-15T10:00:55.280Z,20.63
2018-02-15T10:03:24.777Z,22.87
2018-02-15T10:05:54.026Z,27.63
2018-02-15T10:08:23.290Z,23.77
2018-02-15T10:10:52.543Z,26.03
2018-02-15T10:13:21.790Z,21.93
2018-02-15T10:15:51.087Z,23.83
2018-02-15T10:18:20.513Z,19.70
2018-02-15T10:20:50.151Z,30.10
2018-02-15T10:23:19.405Z,21.50
2018-02-15T10:25:48.674Z,22.13
2018-02-15T10:28:17.929Z,19.13
2018-02-15T10:30:47.220Z,23.30
2018-02-15T10:33:16.469Z,23.90
2018-02-15T10:35:45.743Z,23.00
2018-02-15T10:38:15.835Z,26.30
2018-02-15T10:40:45.090Z,16.70
2018-02-15T10:43:14.353Z,26.40
2018-02-15T10:45:43.638Z,19.70
2018-02-15T10:48:12.936Z,46.33
2018-02-15T10:50:42.374Z,27.00
2018-02-15T10:53:12.413Z,25.77
2018-02-15T10:55:41.706Z,35.73
2018-02-15T10:58:10.998Z,37.23
2018-02-15T11:00:45.868Z,28.07
2018-02-15T11:03:20.497Z,26.33
2018-02-15T11:05:49.762Z,23.50
2018-02-15T11:08:19.053Z,28.17
2018-02-15T11:10:48.316Z,22.13
2018-02-15T11:13:17.586Z,24.47
2018-02-15T11:15:46.875Z,26.67
2018-02-15T11:18:16.120Z,28.70
2018-02-15T11:20:45.377Z,25.87
2018-02-15T11:23:14.630Z,30.40
2018-02-15T11:25:43.869Z,25.07
2018-02-15T11:28:13.131Z,29.23
2018-02-15T11:30:42.400Z,26.30
2018-02-15T11:33:11.686Z,27.93
2018-02-15T11:35:41.082Z,27.50
2018-02-15T11:38:10.324Z,30.13
2018-02-15T11:40:39.557Z,33.23
2018-02-15T11:43:08.893Z,29.83
2018-02-15T11:45:38.148Z,29.40
2018-02-15T11:48:07.435Z,29.97
2018-02-15T11:50:36.691Z,36.23
2018-02-15T11:53:05.952Z,30.83
2018-02-15T11:55:35.987Z,29.97
2018-02-15T11:58:05.229Z,31.40
2018-02-15T12:00:34.493Z,41.50
2018-02-15T12:03:03.744Z,25.23
2018-02-15T12:05:33.021Z,38.00
2018-02-15T12:08:02.279Z,33.37
2018-02-15T12:10:31.541Z,25.60
2018-02-15T12:13:00.788Z,31.50
2018-02-15T12:15:30.919Z,31.80
2018-02-15T12:18:00.163Z,27.23
2018-02-15T12:20:29.390Z,32.53
2018-02-15T12:22:58.674Z,25.20
2018-02-15T12:25:27.942Z,38.17
2018-02-15T12:27:57.213Z,37.53
2018-02-15T12:30:27.327Z,27.43
2018-02-15T12:32:57.433Z,34.43
2018-02-15T12:35:27.632Z,24.57
2018-02-15T12:37:56.905Z,27.63
2018-02-15T12:40:26.157Z,28.10
2018-02-15T12:42:56.196Z,22.03
2018-02-15T12:45:25.426Z,35.33
2018-02-15T12:47:54.710Z,30.03
2018-02-15T12:50:23.989Z,25.27
2018-02-15T12:52:54.082Z,29.00
2018-02-15T12:55:23.338Z,29.77
2018-02-15T12:57:52.577Z,37.37
2018-02-15T13:00:21.861Z,23.40
2018-02-15T13:02:51.135Z,23.03
2018-02-15T13:05:20.369Z,28.30
2018-02-15T13:07:49.627Z,30.77
2018-02-15T13:10:18.927Z,32.53
2018-02-15T13:13:05.733Z,26.73
2018-02-15T13:15:52.562Z,26.20
2018-02-15T13:18:21.811Z,33.70
2018-02-15T13:20:51.083Z,24.07
2018-02-15T13:23:20.336Z,24.07
2018-02-15T13:25:49.712Z,26.20
2018-02-15T13:28:39.473Z,41.70
2018-02-15T13:31:08.747Z,26.70
2018-02-15T13:33:38.313Z,29.83
2018-02-15T13:36:07.550Z,29.37
2018-02-15T13:38:36.962Z,30.07
2018-02-15T13:41:06.201Z,30.20
2018-02-15T13:43:35.478Z,34.73
2018-02-15T13:46:04.721Z,24.97
2018-02-15T13:48:33.985Z,28.33
2018-02-15T13:51:03.366Z,25.63
2018-02-15T13:53:33.448Z,28.00
2018-02-15T13:56:02.704Z,40.73
2018-02-15T13:58:32.090Z,26.03
2018-02-15T14:01:01.341Z,27.63
2018-02-15T14:03:30.587Z,24.10
2018-02-15T14:06:00.713Z,22.50
2018-02-15T14:08:29.945Z,20.87
2018-02-15T14:10:59.223Z,28.57
2018-02-15T14:13:28.466Z,31.50
2018-02-15T14:15:57.717Z,25.40
2018-02-15T14:18:27.043Z,21.83
2018-02-15T14:20:56.290Z,22.87
2018-02-15T14:23:25.545Z,34.60
2018-02-15T14:25:54.797Z,27.50
2018-02-15T14:28:24.858Z,24.77
2018-02-15T14:30:54.124Z,27.63
2018-02-15T14:33:23.380Z,46.37
2018-02-15T14:35:52.645Z,48.03
2018-02-15T14:38:21.897Z,27.73
2018-02-15T14:40:51.952Z,24.10
2018-02-15T14:43:21.430Z,29.80
2018-02-15T14:45:50.724Z,35.30
2018-02-15T14:48:20.740Z,26.40
2018-02-15T14:50:49.983Z,28.97
2018-02-15T14:53:19.234Z,27.70
2018-02-15T14:55:48.496Z,22.60
2018-02-15T14:58:17.789Z,33.00
2018-02-15T15:00:47.785Z,27.00
2018-02-15T15:03:17.047Z,31.13
2018-02-15T15:05:46.333Z,27.13
2018-02-15T15:08:16.430Z,24.77
2018-02-15T15:10:45.692Z,29.13
2018-02-15T15:13:15.697Z,29.93
2018-02-15T15:15:45.006Z,28.93
2018-02-15T15:18:14.266Z,29.83
2018-02-15T15:20:43.537Z,26.50
2018-02-15T15:23:12.816Z,26.73
2018-02-15T15:25:42.835Z,30.00
2018-02-15T15:28:12.169Z,26.03
2018-02-15T15:30:41.434Z,26.20
2018-02-15T15:33:10.700Z,26.60
2018-02-15T15:35:40.682Z,27.50
2018-02-15T15:38:10.162Z,27.00
2018-02-15T15:40:39.483Z,31.10
2018-02-15T15:43:10.200Z,23.93
2018-02-15T15:45:39.514Z,24.70
2018-02-15T15:48:08.764Z,27.30
2018-02-15T15:50:38.020Z,28.80
2018-02-15T15:53:08.028Z,25.13
2018-02-15T15:55:37.333Z,33.83
2018-02-15T15:58:06.629Z,34.40
2018-02-15T16:00:35.860Z,29.57
2018-02-15T16:03:05.126Z,43.80
2018-02-15T16:05:35.159Z,39.10
2018-02-15T16:08:04.450Z,31.47
2018-02-15T16:10:33.871Z,36.63
2018-02-15T16:13:03.137Z,36.70
2018-02-15T16:15:32.389Z,25.67
2018-02-15T16:18:01.665Z,47.87
2018-02-15T16:20:30.913Z,33.37
2018-02-15T16:23:00.164Z,31.70
2018-02-15T16:25:30.165Z,33.83
2018-02-15T16:27:59.433Z,37.60
2018-02-15T16:30:28.902Z,27.83
2018-02-15T16:32:58.164Z,24.87
2018-02-15T16:35:28.217Z,35.57
2018-02-15T16:37:57.477Z,33.47
2018-02-15T16:40:27.018Z,30.77
2018-02-15T16:42:56.241Z,32.93
2018-02-15T16:45:25.511Z,42.70
2018-02-15T16:47:56.170Z,41.80
2018-02-15T16:50:25.426Z,28.97
2018-02-15T16:52:54.676Z,31.57
2018-02-15T16:55:23.970Z,29.87
2018-02-15T16:57:53.246Z,39.30
2018-02-15T17:00:23.261Z,38.97
2018-02-15T17:02:52.521Z,33.30
2018-02-15T17:05:21.769Z,41.60
2018-02-15T17:07:51.070Z,23.17
2018-02-15T17:10:21.076Z,28.67
2018-02-15T17:12:50.342Z,49.77
2018-02-15T17:15:19.626Z,61.20
2018-02-15T17:17:48.878Z,34.40
2018-02-15T17:20:18.909Z,27.97
2018-02-15T17:22:48.165Z,28.37
2018-02-15T17:25:17.450Z,31.57
2018-02-15T17:27:47.478Z,24.17
2018-02-15T17:30:16.718Z,26.13
2018-02-15T17:32:45.989Z,24.40
2018-02-15T17:35:15.239Z,27.50
2018-02-15T17:37:44.543Z,33.60
2018-02-15T17:40:13.786Z,28.10
2018-02-15T17:42:43.055Z,24.23
2018-02-15T17:45:12.360Z,25.70
2018-02-15T17:47:41.601Z,26.07
2018-02-15T17:50:10.873Z,28.87
2018-02-15T17:52:40.117Z,36.30
2018-02-15T17:55:10.196Z,26.00
2018-02-15T17:57:39.440Z,27.40
2018-02-15T18:00:08.710Z,22.93
2018-02-15T18:02:37.987Z,23.80
2018-02-15T18:05:07.227Z,25.93
2018-02-15T18:07:36.475Z,27.30
2018-02-15T18:10:05.741Z,23.60
2018-02-15T18:12:35.030Z,22.90
2018-02-15T18:15:04.327Z,29.90
2018-02-15T18:17:33.629Z,23.30
2018-02-15T18:20:02.886Z,21.30
2018-02-15T18:22:32.233Z,22.33
2018-02-15T18:25:01.530Z,21.93
2018-02-15T18:27:30.837Z,23.63
2018-02-15T18:30:00.157Z,33.37
2018-02-15T18:32:29.409Z,26.77
2018-02-15T18:34:58.680Z,25.87
2018-02-15T18:37:27.917Z,19.00
2018-02-15T18:39:57.159Z,20.70
2018-02-15T18:42:26.418Z,22.97
2018-02-15T18:44:55.688Z,18.60
2018-02-15T18:47:25.016Z,18.30
2018-02-15T18:49:54.999Z,19.63
2018-02-15T18:52:24.252Z,22.77
2018-02-15T18:54:53.500Z,21.27
2018-02-15T18:57:22.780Z,19.47
2018-02-15T18:59:52.815Z,21.33
2018-02-15T19:02:22.082Z,23.80
2018-02-15T19:04:51.366Z,19.50
2018-02-15T19:07:20.624Z,18.37
2018-02-15T19:09:50.646Z,21.63
2018-02-15T19:12:20.027Z,23.30
2018-02-15T19:14:50.161Z,19.03
2018-02-15T19:17:19.417Z,19.37
2018-02-15T19:19:48.741Z,22.60
2018-02-15T19:22:18.010Z,16.37
2018-02-15T19:24:47.491Z,19.63
2018-02-15T19:27:16.733Z,20.30
2018-02-15T19:29:45.986Z,18.17
2018-02-15T19:32:15.390Z,19.87
2018-02-15T19:34:44.841Z,17.50
2018-02-15T19:37:14.133Z,15.77
2018-02-15T19:39:43.387Z,13.13
2018-02-15T19:42:12.679Z,16.83
2018-02-15T19:44:43.719Z,17.03
2018-02-15T19:47:13.926Z,20.03
2018-02-15T19:49:43.590Z,16.50
2018-02-15T19:52:12.948Z,16.90
2018-02-15T19:54:42.380Z,19.77
2018-02-15T19:57:12.413Z,17.27
2018-02-15T19:59:41.829Z,16.70
2018-02-15T20:02:15.642Z,14.50
2018-02-15T20:04:45.445Z,14.70
2018-02-15T20:07:14.705Z,15.40
2018-02-15T20:09:43.953Z,12.77
2018-02-15T20:12:13.237Z,14.47
2018-02-15T20:14:42.497Z,14.87
2018-02-15T20:17:12.374Z,16.17
2018-02-15T20:19:41.927Z,19.70
2018-02-15T20:22:11.192Z,17.10
2018-02-15T20:24:40.449Z,22.23
2018-02-15T20:27:15.222Z,24.90
2018-02-15T20:29:44.742Z,22.40
2018-02-15T20:32:14.003Z,38.20
2018-02-15T20:34:44.101Z,25.43
2018-02-15T20:37:14.141Z,15.83
2018-02-15T20:39:48.969Z,12.73
2018-02-15T20:42:19.049Z,16.87
2018-02-15T20:44:49.091Z,13.83
2018-02-15T20:47:18.535Z,16.63
2018-02-15T20:49:54.010Z,39.47
2018-02-15T20:52:28.841Z,40.03
2018-02-15T20:55:04.672Z,18.20
2018-02-15T20:57:33.932Z,10.27
2018-02-15T21:00:03.983Z,16.03
2018-02-15T21:02:34.299Z,15.20
2018-02-15T21:05:03.593Z,11.73
2018-02-15T21:07:33.600Z,15.37
2018-02-15T21:10:02.961Z,13.67
2018-02-15T21:12:32.349Z,17.83
2018-02-15T21:15:02.596Z,13.40
2018-02-15T21:17:31.898Z,14.53
2018-02-15T21:20:01.132Z,17.60
2018-02-15T21:22:30.432Z,17.60
2018-02-15T21:24:59.732Z,15.73
2018-02-15T21:27:29.166Z,14.27
2018-02-15T21:29:58.486Z,12.67
2018-02-15T21:32:27.775Z,16.50
2018-02-15T21:34:57.074Z,13.40
2018-02-15T21:37:27.153Z,14.57
2018-02-15T21:39:56.502Z,11.53
2018-02-15T21:42:25.779Z,13.23
2018-02-15T21:44:55.019Z,11.13
2018-02-15T21:47:25.081Z,11.00
2018-02-15T21:49:54.350Z,15.37
2018-02-15T21:52:23.627Z,14.60
2018-02-15T21:54:52.865Z,13.90
2018-02-15T21:57:22.128Z,14.27
2018-02-15T21:59:51.365Z,13.10
2018-02-15T22:02:20.621Z,12.00
2018-02-15T22:04:49.917Z,10.17
2018-02-15T22:07:19.913Z,13.27
2018-02-15T22:09:49.158Z,13.33
2018-02-15T22:12:18.413Z,11.97
2018-02-15T22:14:48.002Z,12.73
2018-02-15T22:17:17.254Z,18.40
2018-02-15T22:19:46.700Z,13.20
2018-02-15T22:22:16.010Z,10.83
2018-02-15T22:24:45.339Z,12.67
2018-02-15T22:27:14.617Z,9.00
2018-02-15T22:29:43.875Z,9.77
2018-02-15T22:32:13.142Z,14.30
2018-02-15T22:34:42.444Z,14.53
2018-02-15T22:37:12.473Z,12.40
2018-02-15T22:39:41.884Z,11.00
2018-02-15T22:42:11.900Z,10.40
2018-02-15T22:44:41.185Z,9.60
2018-02-15T22:47:12.008Z,12.70
2018-02-15T22:49:41.261Z,9.57
2018-02-15T22:52:10.519Z,11.23
2018-02-15T22:54:39.794Z,11.40
2018-02-15T22:57:09.248Z,13.50
2018-02-15T22:59:38.678Z,11.97
2018-02-15T23:02:07.937Z,11.93
2018-02-15T23:04:37.424Z,13.47
2018-02-15T23:07:07.253Z,13.30
2018-02-15T23:09:37.283Z,26.63
2018-02-15T23:12:06.548Z,12.50
2018-02-15T23:14:36.021Z,10.40
2018-02-15T23:17:05.295Z,7.93
2018-02-15T23:19:34.543Z,9.60
2018-02-15T23:22:03.793Z,27.80
2018-02-15T23:24:33.800Z,25.23
2018-02-15T23:27:03.068Z,14.93
2018-02-15T23:29:32.319Z,16.07
2018-02-15T23:32:01.566Z,9.53
2018-02-15T23:34:30.823Z,9.27
2018-02-15T23:37:00.062Z,24.47
2018-02-15T23:39:29.316Z,8.90
2018-02-15T23:41:59.322Z,9.57
2018-02-15T23:44:28.612Z,9.60
2018-02-15T23:46:57.845Z,8.03
2018-02-15T23:49:27.140Z,13.60
2018-02-15T23:51:56.559Z,6.37
2018-02-15T23:54:25.851Z,9.97
2018-02-15T23:56:55.146Z,7.63
2018-02-15T23:59:24.379Z,8.20
